sensor_id;sensor_type;location;lat;lon;timestamp;P1;durP1;ratioP1;P2;durP2;ratioP2
65033;SDS011;51601;51.356;12.458;2024-03-23T00:56:29;30.25;;;12.27;;
65033;SDS011;51601;51.356;12.458;2024-03-23T01:00:46;28.85;;;12.77;;
65033;SDS011;51601;51.356;12.458;2024-03-23T01:05:04;24.87;;;11.23;;
65033;SDS011;51601;51.356;12.458;2024-03-23T01:09:22;24.65;;;11.20;;
65033;SDS011;51601;51.356;12.458;2024-03-23T01:13:41;24.50;;;10.77;;
65033;SDS011;51601;51.356;12.458;2024-03-23T01:17:58;24.77;;;11.17;;
65033;SDS011;51601;51.356;12.458;2024-03-23T01:22:16;24.77;;;11.15;;
65033;SDS011;51601;51.356;12.458;2024-03-23T01:26:34;24.15;;;10.98;;
65033;SDS011;51601;51.356;12.458;2024-03-23T01:30:50;21.27;;;9.95;;
65033;SDS011;51601;51.356;12.458;2024-03-23T01:35:08;21.87;;;10.80;;
65033;SDS011;51601;51.356;12.458;2024-03-23T01:39:25;21.58;;;9.43;;
65033;SDS011;51601;51.356;12.458;2024-03-23T01:43:43;19.65;;;8.48;;
65033;SDS011;51601;51.356;12.458;2024-03-23T01:48:03;21.43;;;8.57;;
65033;SDS011;51601;51.356;12.458;2024-03-23T01:52:19;16.63;;;7.78;;
65033;SDS011;51601;51.356;12.458;2024-03-23T01:56:37;16.38;;;8.13;;
65033;SDS011;51601;51.356;12.458;2024-03-23T02:00:57;20.87;;;8.93;;
65033;SDS011;51601;51.356;12.458;2024-03-23T02:05:15;17.85;;;7.85;;
65033;SDS011;51601;51.356;12.458;2024-03-23T02:09:32;16.65;;;7.18;;
65033;SDS011;51601;51.356;12.458;2024-03-23T02:13:50;14.52;;;6.45;;
65033;SDS011;51601;51.356;12.458;2024-03-23T02:18:08;18.00;;;6.70;;
65033;SDS011;51601;51.356;12.458;2024-03-23T02:22:35;17.23;;;7.40;;
65033;SDS011;51601;51.356;12.458;2024-03-23T02:26:54;16.13;;;6.53;;
65033;SDS011;51601;51.356;12.458;2024-03-23T02:31:11;14.40;;;6.27;;
65033;SDS011;51601;51.356;12.458;2024-03-23T02:35:29;14.73;;;5.93;;
65033;SDS011;51601;51.356;12.458;2024-03-23T02:39:47;14.52;;;5.40;;
65033;SDS011;51601;51.356;12.458;2024-03-23T02:44:07;13.47;;;5.37;;
65033;SDS011;51601;51.356;12.458;2024-03-23T02:48:26;12.05;;;5.38;;
65033;SDS011;51601;51.356;12.458;2024-03-23T02:52:44;15.60;;;5.63;;
65033;SDS011;51601;51.356;12.458;2024-03-23T02:57:03;14.18;;;5.38;;
65033;SDS011;51601;51.356;12.458;2024-03-23T03:01:22;13.93;;;5.57;;
65033;SDS011;51601;51.356;12.458;2024-03-23T03:05:39;11.48;;;4.65;;
65033;SDS011;51601;51.356;12.458;2024-03-23T03:09:57;13.07;;;4.70;;
65033;SDS011;51601;51.356;12.458;2024-03-23T03:14:15;12.10;;;4.90;;
65033;SDS011;51601;51.356;12.458;2024-03-23T03:18:34;12.10;;;4.18;;
65033;SDS011;51601;51.356;12.458;2024-03-23T03:22:51;9.90;;;3.60;;
65033;SDS011;51601;51.356;12.458;2024-03-23T03:27:09;8.80;;;3.20;;
65033;SDS011;51601;51.356;12.458;2024-03-23T03:31:27;11.15;;;3.63;;
65033;SDS011;51601;51.356;12.458;2024-03-23T03:35:46;10.05;;;3.60;;
65033;SDS011;51601;51.356;12.458;2024-03-23T03:40:03;12.05;;;3.60;;
65033;SDS011;51601;51.356;12.458;2024-03-23T03:44:24;10.17;;;3.27;;
65033;SDS011;51601;51.356;12.458;2024-03-23T03:48:42;10.65;;;3.80;;
65033;SDS011;51601;51.356;12.458;2024-03-23T03:53:02;10.77;;;3.60;;
65033;SDS011;51601;51.356;12.458;2024-03-23T03:57:18;11.90;;;3.20;;
65033;SDS011;51601;51.356;12.458;2024-03-23T04:01:36;9.73;;;3.22;;
65033;SDS011;51601;51.356;12.458;2024-03-23T04:05:55;10.88;;;3.40;;
65033;SDS011;51601;51.356;12.458;2024-03-23T04:10:14;8.67;;;3.33;;
65033;SDS011;51601;51.356;12.458;2024-03-23T04:14:31;9.68;;;3.13;;
65033;SDS011;51601;51.356;12.458;2024-03-23T04:18:49;9.32;;;3.33;;
65033;SDS011;51601;51.356;12.458;2024-03-23T04:23:07;8.43;;;3.03;;
65033;SDS011;51601;51.356;12.458;2024-03-23T04:27:26;9.10;;;3.10;;
65033;SDS011;51601;51.356;12.458;2024-03-23T04:31:43;10.50;;;3.20;;
65033;SDS011;51601;51.356;12.458;2024-03-23T04:36:01;10.95;;;3.67;;
65033;SDS011;51601;51.356;12.458;2024-03-23T04:40:19;10.33;;;3.80;;
65033;SDS011;51601;51.356;12.458;2024-03-23T04:44:38;11.15;;;3.60;;
65033;SDS011;51601;51.356;12.458;2024-03-23T04:48:55;9.60;;;3.45;;
65033;SDS011;51601;51.356;12.458;2024-03-23T04:53:13;9.03;;;3.30;;
65033;SDS011;51601;51.356;12.458;2024-03-23T04:57:31;11.82;;;3.58;;
65033;SDS011;51601;51.356;12.458;2024-03-23T05:01:51;9.88;;;3.67;;
65033;SDS011;51601;51.356;12.458;2024-03-23T05:06:07;9.32;;;3.90;;
65033;SDS011;51601;51.356;12.458;2024-03-23T05:10:25;9.03;;;3.80;;
65033;SDS011;51601;51.356;12.458;2024-03-23T05:14:43;12.02;;;3.67;;
65033;SDS011;51601;51.356;12.458;2024-03-23T05:19:03;11.82;;;3.22;;
65033;SDS011;51601;51.356;12.458;2024-03-23T05:23:19;11.80;;;3.93;;
65033;SDS011;51601;51.356;12.458;2024-03-23T05:27:37;8.88;;;3.97;;
65033;SDS011;51601;51.356;12.458;2024-03-23T05:31:56;12.82;;;3.70;;
65033;SDS011;51601;51.356;12.458;2024-03-23T05:36:15;11.37;;;4.10;;
65033;SDS011;51601;51.356;12.458;2024-03-23T05:40:32;12.02;;;3.50;;
65033;SDS011;51601;51.356;12.458;2024-03-23T05:44:53;13.35;;;3.50;;
65033;SDS011;51601;51.356;12.458;2024-03-23T05:49:11;11.57;;;3.67;;
65033;SDS011;51601;51.356;12.458;2024-03-23T05:53:30;10.63;;;3.57;;
65033;SDS011;51601;51.356;12.458;2024-03-23T05:57:47;10.40;;;3.78;;
65033;SDS011;51601;51.356;12.458;2024-03-23T06:02:05;10.35;;;3.30;;
65033;SDS011;51601;51.356;12.458;2024-03-23T06:06:23;11.87;;;3.80;;
65033;SDS011;51601;51.356;12.458;2024-03-23T06:10:42;11.63;;;3.90;;
65033;SDS011;51601;51.356;12.458;2024-03-23T06:14:59;12.20;;;4.57;;
65033;SDS011;51601;51.356;12.458;2024-03-23T06:19:17;11.57;;;4.20;;
65033;SDS011;51601;51.356;12.458;2024-03-23T06:23:35;14.75;;;5.38;;
65033;SDS011;51601;51.356;12.458;2024-03-23T06:27:55;11.13;;;3.90;;
65033;SDS011;51601;51.356;12.458;2024-03-23T06:32:14;12.65;;;4.75;;
65033;SDS011;51601;51.356;12.458;2024-03-23T06:36:32;12.10;;;4.30;;
65033;SDS011;51601;51.356;12.458;2024-03-23T06:40:51;13.88;;;4.70;;
65033;SDS011;51601;51.356;12.458;2024-03-23T06:45:10;12.63;;;4.38;;
65033;SDS011;51601;51.356;12.458;2024-03-23T06:49:27;13.93;;;4.63;;
65033;SDS011;51601;51.356;12.458;2024-03-23T06:53:45;14.00;;;4.90;;
65033;SDS011;51601;51.356;12.458;2024-03-23T06:58:03;12.73;;;5.18;;
65033;SDS011;51601;51.356;12.458;2024-03-23T07:02:22;14.63;;;4.93;;
65033;SDS011;51601;51.356;12.458;2024-03-23T07:06:42;18.40;;;5.93;;
65033;SDS011;51601;51.356;12.458;2024-03-23T07:11:00;16.42;;;6.53;;
65033;SDS011;51601;51.356;12.458;2024-03-23T07:15:18;15.43;;;5.90;;
65033;SDS011;51601;51.356;12.458;2024-03-23T07:19:37;15.27;;;5.57;;
65033;SDS011;51601;51.356;12.458;2024-03-23T07:23:54;15.02;;;5.20;;
65033;SDS011;51601;51.356;12.458;2024-03-23T07:28:12;13.80;;;5.38;;
65033;SDS011;51601;51.356;12.458;2024-03-23T07:32:27;14.47;;;5.53;;
65033;SDS011;51601;51.356;12.458;2024-03-23T07:36:47;16.77;;;5.90;;
65033;SDS011;51601;51.356;12.458;2024-03-23T07:41:04;11.65;;;4.25;;
65033;SDS011;51601;51.356;12.458;2024-03-23T07:45:21;14.63;;;4.20;;
65033;SDS011;51601;51.356;12.458;2024-03-23T07:49:40;9.50;;;2.60;;
65033;SDS011;51601;51.356;12.458;2024-03-23T07:53:59;7.13;;;1.80;;
65033;SDS011;51601;51.356;12.458;2024-03-23T07:58:16;5.60;;;1.67;;
65033;SDS011;51601;51.356;12.458;2024-03-23T08:02:33;6.23;;;1.30;;
65033;SDS011;51601;51.356;12.458;2024-03-23T08:06:52;4.57;;;1.13;;
65033;SDS011;51601;51.356;12.458;2024-03-23T08:11:11;6.10;;;2.15;;
65033;SDS011;51601;51.356;12.458;2024-03-23T08:15:29;4.50;;;1.60;;
65033;SDS011;51601;51.356;12.458;2024-03-23T08:19:49;4.97;;;1.30;;
65033;SDS011;51601;51.356;12.458;2024-03-23T08:24:07;4.85;;;1.77;;
65033;SDS011;51601;51.356;12.458;2024-03-23T08:28:29;6.40;;;1.63;;
65033;SDS011;51601;51.356;12.458;2024-03-23T08:32:46;5.68;;;2.05;;
65033;SDS011;51601;51.356;12.458;2024-03-23T08:37:04;5.57;;;1.60;;
65033;SDS011;51601;51.356;12.458;2024-03-23T08:41:22;5.38;;;1.70;;
65033;SDS011;51601;51.356;12.458;2024-03-23T08:45:42;3.30;;;1.10;;
65033;SDS011;51601;51.356;12.458;2024-03-23T08:49:58;4.63;;;1.40;;
65033;SDS011;51601;51.356;12.458;2024-03-23T08:54:16;5.55;;;1.45;;
65033;SDS011;51601;51.356;12.458;2024-03-23T08:58:35;4.80;;;1.30;;
65033;SDS011;51601;51.356;12.458;2024-03-23T09:02:54;4.72;;;1.83;;
65033;SDS011;51601;51.356;12.458;2024-03-23T09:07:11;7.35;;;2.25;;
65033;SDS011;51601;51.356;12.458;2024-03-23T09:11:29;6.00;;;1.77;;
65033;SDS011;51601;51.356;12.458;2024-03-23T09:15:47;5.15;;;1.42;;
65033;SDS011;51601;51.356;12.458;2024-03-23T09:20:07;6.95;;;1.80;;
65033;SDS011;51601;51.356;12.458;2024-03-23T09:24:26;4.57;;;1.42;;
65033;SDS011;51601;51.356;12.458;2024-03-23T09:28:44;5.30;;;1.50;;
65033;SDS011;51601;51.356;12.458;2024-03-23T09:33:02;5.30;;;1.45;;
65033;SDS011;51601;51.356;12.458;2024-03-23T09:37:21;4.95;;;1.85;;
65033;SDS011;51601;51.356;12.458;2024-03-23T09:41:38;5.60;;;1.90;;
65033;SDS011;51601;51.356;12.458;2024-03-23T09:45:56;7.28;;;1.40;;
65033;SDS011;51601;51.356;12.458;2024-03-23T09:50:14;5.60;;;1.90;;
65033;SDS011;51601;51.356;12.458;2024-03-23T09:54:34;4.63;;;1.50;;
65033;SDS011;51601;51.356;12.458;2024-03-23T09:58:50;4.32;;;1.60;;
65033;SDS011;51601;51.356;12.458;2024-03-23T10:03:08;5.32;;;1.88;;
65033;SDS011;51601;51.356;12.458;2024-03-23T10:07:26;4.82;;;1.20;;
65033;SDS011;51601;51.356;12.458;2024-03-23T10:11:46;3.80;;;1.30;;
65033;SDS011;51601;51.356;12.458;2024-03-23T10:16:06;3.75;;;1.30;;
65033;SDS011;51601;51.356;12.458;2024-03-23T10:20:24;2.45;;;0.93;;
65033;SDS011;51601;51.356;12.458;2024-03-23T10:24:42;4.30;;;1.47;;
65033;SDS011;51601;51.356;12.458;2024-03-23T10:29:01;3.22;;;1.10;;
65033;SDS011;51601;51.356;12.458;2024-03-23T10:33:24;1.83;;;0.80;;
65033;SDS011;51601;51.356;12.458;2024-03-23T10:37:39;4.13;;;1.10;;
65033;SDS011;51601;51.356;12.458;2024-03-23T10:41:57;4.32;;;1.25;;
65033;SDS011;51601;51.356;12.458;2024-03-23T10:46:16;3.28;;;1.27;;
65033;SDS011;51601;51.356;12.458;2024-03-23T10:50:33;4.30;;;1.80;;
65033;SDS011;51601;51.356;12.458;2024-03-23T10:54:51;3.83;;;1.50;;
65033;SDS011;51601;51.356;12.458;2024-03-23T10:59:09;4.10;;;1.70;;
65033;SDS011;51601;51.356;12.458;2024-03-23T11:03:32;5.63;;;1.90;;
65033;SDS011;51601;51.356;12.458;2024-03-23T11:07:52;6.13;;;2.83;;
65033;SDS011;51601;51.356;12.458;2024-03-23T11:12:29;7.85;;;3.40;;
65033;SDS011;51601;51.356;12.458;2024-03-23T11:16:51;6.95;;;2.88;;
65033;SDS011;51601;51.356;12.458;2024-03-23T11:26:08;6.80;;;2.53;;
65033;SDS011;51601;51.356;12.458;2024-03-23T11:30:27;5.43;;;2.22;;
65033;SDS011;51601;51.356;12.458;2024-03-23T11:34:44;5.13;;;1.92;;
65033;SDS011;51601;51.356;12.458;2024-03-23T11:39:12;5.17;;;2.00;;
65033;SDS011;51601;51.356;12.458;2024-03-23T11:43:30;7.38;;;2.20;;
65033;SDS011;51601;51.356;12.458;2024-03-23T11:47:48;5.97;;;1.75;;
65033;SDS011;51601;51.356;12.458;2024-03-23T11:52:06;5.93;;;1.57;;
65033;SDS011;51601;51.356;12.458;2024-03-23T11:56:25;7.57;;;1.70;;
65033;SDS011;51601;51.356;12.458;2024-03-23T12:00:42;7.60;;;1.67;;
65033;SDS011;51601;51.356;12.458;2024-03-23T12:05:13;10.43;;;1.67;;
65033;SDS011;51601;51.356;12.458;2024-03-23T12:09:30;5.82;;;1.30;;
65033;SDS011;51601;51.356;12.458;2024-03-23T12:13:50;8.68;;;1.60;;
65033;SDS011;51601;51.356;12.458;2024-03-23T12:18:07;6.00;;;1.60;;
65033;SDS011;51601;51.356;12.458;2024-03-23T12:22:21;5.53;;;1.40;;
65033;SDS011;51601;51.356;12.458;2024-03-23T12:26:39;5.15;;;1.40;;
65033;SDS011;51601;51.356;12.458;2024-03-23T12:30:59;7.30;;;1.60;;
65033;SDS011;51601;51.356;12.458;2024-03-23T12:35:16;5.53;;;1.50;;
65033;SDS011;51601;51.356;12.458;2024-03-23T12:39:34;7.20;;;1.73;;
65033;SDS011;51601;51.356;12.458;2024-03-23T12:43:52;3.50;;;1.08;;
65033;SDS011;51601;51.356;12.458;2024-03-23T12:48:11;4.07;;;1.30;;
65033;SDS011;51601;51.356;12.458;2024-03-23T12:52:28;5.22;;;2.00;;
65033;SDS011;51601;51.356;12.458;2024-03-23T12:56:46;6.22;;;1.70;;
65033;SDS011;51601;51.356;12.458;2024-03-23T13:01:04;6.47;;;1.70;;
65033;SDS011;51601;51.356;12.458;2024-03-23T13:05:23;4.80;;;1.50;;
65033;SDS011;51601;51.356;12.458;2024-03-23T13:09:40;6.03;;;1.67;;
65033;SDS011;51601;51.356;12.458;2024-03-23T13:13:58;6.68;;;2.10;;
65033;SDS011;51601;51.356;12.458;2024-03-23T13:18:16;8.07;;;2.17;;
65033;SDS011;51601;51.356;12.458;2024-03-23T13:22:35;7.68;;;2.85;;
65033;SDS011;51601;51.356;12.458;2024-03-23T13:26:52;8.20;;;3.17;;
65033;SDS011;51601;51.356;12.458;2024-03-23T13:31:10;10.10;;;3.00;;
65033;SDS011;51601;51.356;12.458;2024-03-23T13:35:28;8.57;;;3.00;;
65033;SDS011;51601;51.356;12.458;2024-03-23T13:39:48;8.45;;;2.63;;
65033;SDS011;51601;51.356;12.458;2024-03-23T13:44:04;7.50;;;2.60;;
65033;SDS011;51601;51.356;12.458;2024-03-23T13:48:19;6.17;;;2.00;;
65033;SDS011;51601;51.356;12.458;2024-03-23T13:52:38;8.43;;;2.30;;
65033;SDS011;51601;51.356;12.458;2024-03-23T13:56:57;7.63;;;2.80;;
65033;SDS011;51601;51.356;12.458;2024-03-23T14:01:14;8.73;;;2.40;;
65033;SDS011;51601;51.356;12.458;2024-03-23T14:05:32;9.90;;;2.58;;
65033;SDS011;51601;51.356;12.458;2024-03-23T14:09:50;6.32;;;2.15;;
65033;SDS011;51601;51.356;12.458;2024-03-23T14:14:12;5.53;;;2.03;;
65033;SDS011;51601;51.356;12.458;2024-03-23T14:18:32;8.57;;;2.55;;
65033;SDS011;51601;51.356;12.458;2024-03-23T14:22:48;6.53;;;2.50;;
65033;SDS011;51601;51.356;12.458;2024-03-23T14:27:05;6.32;;;2.92;;
65033;SDS011;51601;51.356;12.458;2024-03-23T14:31:24;10.03;;;3.80;;
65033;SDS011;51601;51.356;12.458;2024-03-23T14:35:41;8.25;;;3.45;;
65033;SDS011;51601;51.356;12.458;2024-03-23T14:39:59;5.65;;;1.95;;
65033;SDS011;51601;51.356;12.458;2024-03-23T14:44:17;8.50;;;2.43;;
65033;SDS011;51601;51.356;12.458;2024-03-23T14:48:37;9.10;;;2.15;;
65033;SDS011;51601;51.356;12.458;2024-03-23T14:52:53;5.13;;;1.95;;
65033;SDS011;51601;51.356;12.458;2024-03-23T14:57:12;5.30;;;2.17;;
65033;SDS011;51601;51.356;12.458;2024-03-23T15:01:29;6.15;;;1.75;;
65033;SDS011;51601;51.356;12.458;2024-03-23T15:05:55;6.47;;;2.17;;
65033;SDS011;51601;51.356;12.458;2024-03-23T15:10:12;4.40;;;1.50;;
65033;SDS011;51601;51.356;12.458;2024-03-23T15:14:30;5.80;;;1.97;;
65033;SDS011;51601;51.356;12.458;2024-03-23T15:18:48;6.10;;;1.95;;
65033;SDS011;51601;51.356;12.458;2024-03-23T15:23:08;6.07;;;1.73;;
65033;SDS011;51601;51.356;12.458;2024-03-23T15:27:24;5.87;;;1.90;;
65033;SDS011;51601;51.356;12.458;2024-03-23T15:31:42;6.00;;;2.00;;
65033;SDS011;51601;51.356;12.458;2024-03-23T15:36:00;5.13;;;1.88;;
65033;SDS011;51601;51.356;12.458;2024-03-23T15:40:19;4.80;;;1.87;;
65033;SDS011;51601;51.356;12.458;2024-03-23T15:44:36;6.40;;;2.35;;
65033;SDS011;51601;51.356;12.458;2024-03-23T15:48:54;6.75;;;2.20;;
65033;SDS011;51601;51.356;12.458;2024-03-23T15:53:12;5.40;;;2.22;;
65033;SDS011;51601;51.356;12.458;2024-03-23T15:57:32;7.07;;;2.70;;
65033;SDS011;51601;51.356;12.458;2024-03-23T16:01:48;6.22;;;2.55;;
65033;SDS011;51601;51.356;12.458;2024-03-23T16:06:07;6.53;;;2.20;;
65033;SDS011;51601;51.356;12.458;2024-03-23T16:10:24;5.47;;;2.30;;
65033;SDS011;51601;51.356;12.458;2024-03-23T16:14:44;8.23;;;2.15;;
65033;SDS011;51601;51.356;12.458;2024-03-23T16:19:01;5.07;;;1.80;;
65033;SDS011;51601;51.356;12.458;2024-03-23T16:23:19;7.50;;;3.10;;
65033;SDS011;51601;51.356;12.458;2024-03-23T16:27:37;7.05;;;2.72;;
65033;SDS011;51601;51.356;12.458;2024-03-23T16:31:56;9.20;;;3.10;;
65033;SDS011;51601;51.356;12.458;2024-03-23T16:36:13;9.38;;;3.90;;
65033;SDS011;51601;51.356;12.458;2024-03-23T16:40:31;10.13;;;4.37;;
65033;SDS011;51601;51.356;12.458;2024-03-23T16:44:49;8.25;;;3.70;;
65033;SDS011;51601;51.356;12.458;2024-03-23T16:49:08;6.07;;;2.20;;
65033;SDS011;51601;51.356;12.458;2024-03-23T16:53:25;7.80;;;3.20;;
65033;SDS011;51601;51.356;12.458;2024-03-23T16:57:46;8.77;;;3.83;;
65033;SDS011;51601;51.356;12.458;2024-03-23T17:02:01;7.80;;;2.90;;
65033;SDS011;51601;51.356;12.458;2024-03-23T17:06:20;10.63;;;3.43;;
65033;SDS011;51601;51.356;12.458;2024-03-23T17:10:40;9.27;;;2.80;;
65033;SDS011;51601;51.356;12.458;2024-03-23T17:14:58;9.40;;;3.42;;
65033;SDS011;51601;51.356;12.458;2024-03-23T17:19:20;5.28;;;2.28;;
65033;SDS011;51601;51.356;12.458;2024-03-23T17:23:39;6.20;;;2.40;;
65033;SDS011;51601;51.356;12.458;2024-03-23T17:27:56;7.00;;;2.75;;
65033;SDS011;51601;51.356;12.458;2024-03-23T17:32:14;6.43;;;2.42;;
65033;SDS011;51601;51.356;12.458;2024-03-23T17:36:32;6.13;;;2.57;;
65033;SDS011;51601;51.356;12.458;2024-03-23T17:40:56;4.78;;;1.90;;
65033;SDS011;51601;51.356;12.458;2024-03-23T17:45:14;6.95;;;2.78;;
65033;SDS011;51601;51.356;12.458;2024-03-23T17:49:32;7.83;;;3.17;;
65033;SDS011;51601;51.356;12.458;2024-03-23T17:53:50;7.70;;;3.13;;
65033;SDS011;51601;51.356;12.458;2024-03-23T17:58:12;7.07;;;2.90;;
65033;SDS011;51601;51.356;12.458;2024-03-23T18:02:32;6.43;;;2.53;;
65033;SDS011;51601;51.356;12.458;2024-03-23T18:06:50;7.27;;;2.13;;
65033;SDS011;51601;51.356;12.458;2024-03-23T18:11:09;9.10;;;2.40;;
65033;SDS011;51601;51.356;12.458;2024-03-23T18:15:28;7.32;;;2.70;;
65033;SDS011;51601;51.356;12.458;2024-03-23T18:19:45;6.80;;;2.63;;
65033;SDS011;51601;51.356;12.458;2024-03-23T18:24:03;6.38;;;2.58;;
65033;SDS011;51601;51.356;12.458;2024-03-23T18:28:21;8.07;;;2.75;;
65033;SDS011;51601;51.356;12.458;2024-03-23T18:32:40;7.00;;;2.60;;
65033;SDS011;51601;51.356;12.458;2024-03-23T18:36:57;5.88;;;2.35;;
65033;SDS011;51601;51.356;12.458;2024-03-23T18:41:15;9.88;;;3.53;;
65033;SDS011;51601;51.356;12.458;2024-03-23T18:45:33;6.57;;;2.38;;
65033;SDS011;51601;51.356;12.458;2024-03-23T18:49:52;6.47;;;2.40;;
65033;SDS011;51601;51.356;12.458;2024-03-23T18:54:12;8.48;;;3.22;;
65033;SDS011;51601;51.356;12.458;2024-03-23T18:58:30;7.75;;;2.60;;
65033;SDS011;51601;51.356;12.458;2024-03-23T19:02:48;7.80;;;2.80;;
65033;SDS011;51601;51.356;12.458;2024-03-23T19:07:08;10.13;;;3.22;;
65033;SDS011;51601;51.356;12.458;2024-03-23T19:11:24;7.43;;;3.28;;
65033;SDS011;51601;51.356;12.458;2024-03-23T19:15:42;9.23;;;3.27;;
65033;SDS011;51601;51.356;12.458;2024-03-23T19:20:10;8.15;;;3.08;;
65033;SDS011;51601;51.356;12.458;2024-03-23T19:24:32;8.50;;;3.33;;
65033;SDS011;51601;51.356;12.458;2024-03-23T19:28:54;10.63;;;4.20;;
65033;SDS011;51601;51.356;12.458;2024-03-23T19:33:13;10.57;;;4.03;;
65033;SDS011;51601;51.356;12.458;2024-03-23T19:37:31;11.27;;;4.05;;
65033;SDS011;51601;51.356;12.458;2024-03-23T19:41:50;9.57;;;4.50;;
65033;SDS011;51601;51.356;12.458;2024-03-23T19:46:08;8.73;;;4.10;;
65033;SDS011;51601;51.356;12.458;2024-03-23T19:50:25;11.10;;;4.57;;
65033;SDS011;51601;51.356;12.458;2024-03-23T19:54:43;9.25;;;4.07;;
65033;SDS011;51601;51.356;12.458;2024-03-23T19:59:07;10.20;;;4.47;;
65033;SDS011;51601;51.356;12.458;2024-03-23T20:03:22;7.07;;;2.83;;
65033;SDS011;51601;51.356;12.458;2024-03-23T20:07:40;6.78;;;3.15;;
65033;SDS011;51601;51.356;12.458;2024-03-23T20:11:58;6.13;;;2.53;;
65033;SDS011;51601;51.356;12.458;2024-03-23T20:16:18;7.73;;;3.10;;
65033;SDS011;51601;51.356;12.458;2024-03-23T20:20:35;5.93;;;2.90;;
65033;SDS011;51601;51.356;12.458;2024-03-23T20:24:53;5.70;;;2.30;;
65033;SDS011;51601;51.356;12.458;2024-03-23T20:29:11;6.00;;;2.73;;
65033;SDS011;51601;51.356;12.458;2024-03-23T20:33:30;6.20;;;2.55;;
65033;SDS011;51601;51.356;12.458;2024-03-23T20:37:50;7.15;;;2.80;;
65033;SDS011;51601;51.356;12.458;2024-03-23T20:42:08;7.57;;;2.90;;
65033;SDS011;51601;51.356;12.458;2024-03-23T20:46:29;6.60;;;2.60;;
65033;SDS011;51601;51.356;12.458;2024-03-23T20:50:56;7.18;;;3.22;;
65033;SDS011;51601;51.356;12.458;2024-03-23T20:55:15;8.80;;;4.00;;
65033;SDS011;51601;51.356;12.458;2024-03-23T20:59:33;9.53;;;4.50;;
65033;SDS011;51601;51.356;12.458;2024-03-23T21:03:51;11.35;;;4.88;;
65033;SDS011;51601;51.356;12.458;2024-03-23T21:08:13;11.68;;;4.70;;
65033;SDS011;51601;51.356;12.458;2024-03-23T21:12:30;9.70;;;4.60;;
65033;SDS011;51601;51.356;12.458;2024-03-23T21:16:48;10.77;;;4.70;;
65033;SDS011;51601;51.356;12.458;2024-03-23T21:21:09;10.02;;;4.63;;
65033;SDS011;51601;51.356;12.458;2024-03-23T21:25:28;11.23;;;4.47;;
65033;SDS011;51601;51.356;12.458;2024-03-23T21:29:48;9.73;;;4.05;;
65033;SDS011;51601;51.356;12.458;2024-03-23T21:34:09;9.63;;;4.35;;
65033;SDS011;51601;51.356;12.458;2024-03-23T21:38:28;10.55;;;4.80;;
65033;SDS011;51601;51.356;12.458;2024-03-23T21:42:50;9.20;;;4.23;;
65033;SDS011;51601;51.356;12.458;2024-03-23T21:47:06;12.15;;;4.90;;
65033;SDS011;51601;51.356;12.458;2024-03-23T21:51:25;14.00;;;5.00;;
65033;SDS011;51601;51.356;12.458;2024-03-23T21:55:49;12.03;;;4.57;;
65033;SDS011;51601;51.356;12.458;2024-03-23T22:00:09;12.13;;;4.80;;
65033;SDS011;51601;51.356;12.458;2024-03-23T22:04:28;12.93;;;4.75;;
65033;SDS011;51601;51.356;12.458;2024-03-23T22:08:46;12.37;;;5.30;;
65033;SDS011;51601;51.356;12.458;2024-03-23T22:13:04;9.95;;;4.45;;
65033;SDS011;51601;51.356;12.458;2024-03-23T22:17:23;10.23;;;4.43;;
65033;SDS011;51601;51.356;12.458;2024-03-23T22:21:40;9.07;;;4.55;;
65033;SDS011;51601;51.356;12.458;2024-03-23T22:25:58;10.20;;;4.33;;
65033;SDS011;51601;51.356;12.458;2024-03-23T22:30:16;11.07;;;4.47;;
65033;SDS011;51601;51.356;12.458;2024-03-23T22:34:36;5.50;;;2.42;;
65033;SDS011;51601;51.356;12.458;2024-03-23T22:38:56;9.17;;;3.83;;
65033;SDS011;51601;51.356;12.458;2024-03-23T22:43:13;10.18;;;5.00;;
65033;SDS011;51601;51.356;12.458;2024-03-23T22:47:31;11.30;;;4.13;;
65033;SDS011;51601;51.356;12.458;2024-03-23T22:51:54;11.43;;;4.90;;
65033;SDS011;51601;51.356;12.458;2024-03-23T22:56:11;10.77;;;4.45;;
65033;SDS011;51601;51.356;12.458;2024-03-23T23:00:29;11.18;;;4.70;;
65033;SDS011;51601;51.356;12.458;2024-03-23T23:04:48;12.50;;;4.03;;
65033;SDS011;51601;51.356;12.458;2024-03-23T23:09:06;9.57;;;3.93;;
65033;SDS011;51601;51.356;12.458;2024-03-23T23:13:23;9.40;;;3.67;;
65033;SDS011;51601;51.356;12.458;2024-03-23T23:17:41;8.75;;;3.42;;
65033;SDS011;51601;51.356;12.458;2024-03-23T23:21:59;7.33;;;3.13;;
65033;SDS011;51601;51.356;12.458;2024-03-23T23:26:19;8.73;;;3.35;;
65033;SDS011;51601;51.356;12.458;2024-03-23T23:30:41;8.82;;;3.55;;
65033;SDS011;51601;51.356;12.458;2024-03-23T23:35:01;7.43;;;3.10;;
65033;SDS011;51601;51.356;12.458;2024-03-23T23:39:21;6.57;;;2.53;;
65033;SDS011;51601;51.356;12.458;2024-03-23T23:43:40;4.65;;;1.88;;
65033;SDS011;51601;51.356;12.458;2024-03-23T23:47:57;4.38;;;1.85;;
65033;SDS011;51601;51.356;12.458;2024-03-23T23:52:15;8.23;;;2.30;;
65033;SDS011;51601;51.356;12.458;2024-03-23T23:56:33;7.53;;;2.45;;
